createdAt,value
2017-05-09T00:00:08.095Z,84.25
2017-05-09T00:01:07.651Z,83.10
2017-05-09T00:02:08.193Z,84.25
2017-05-09T00:03:07.825Z,84.71
2017-05-09T00:04:08.562Z,85.17
2017-05-09T00:05:08.041Z,85.41
2017-05-09T00:06:07.669Z,85.50
2017-05-09T00:07:08.212Z,86.08
2017-05-09T00:08:07.783Z,85.43
2017-05-09T00:09:08.614Z,84.68
2017-05-09T00:10:08.180Z,84.71
2017-05-09T00:11:07.672Z,85.04
2017-05-09T00:12:08.293Z,84.52
2017-05-09T00:13:07.875Z,84.17
2017-05-09T00:14:08.838Z,84.39
2017-05-09T00:15:08.564Z,84.98
2017-05-09T00:16:08.176Z,84.03
2017-05-09T00:17:07.845Z,84.34
2017-05-09T00:18:08.476Z,84.10
2017-05-09T00:19:08.019Z,85.24
2017-05-09T00:20:07.445Z,84.83
2017-05-09T00:21:07.975Z,85.31
2017-05-09T00:22:07.502Z,84.79
2017-05-09T00:23:08.006Z,85.13
2017-05-09T00:24:07.597Z,84.26
2017-05-09T00:25:08.112Z,84.47
2017-05-09T00:26:07.685Z,84.76
2017-05-09T00:27:08.259Z,84.52
2017-05-09T00:28:07.728Z,85.10
2017-05-09T00:29:08.367Z,84.50
2017-05-09T00:30:32.621Z,83.58
2017-05-09T00:31:08.159Z,83.70
2017-05-09T00:32:07.761Z,83.82
2017-05-09T00:33:08.277Z,84.17
2017-05-09T00:34:07.977Z,84.31
2017-05-09T00:35:07.410Z,84.51
2017-05-09T00:36:08.875Z,84.47
2017-05-09T00:37:08.473Z,83.44
2017-05-09T00:38:08.102Z,83.60
2017-05-09T00:39:07.647Z,82.96
2017-05-09T00:40:08.206Z,82.93
2017-05-09T00:41:07.777Z,83.79
2017-05-09T00:42:08.287Z,84.27
2017-05-09T00:43:07.787Z,83.92
2017-05-09T00:44:08.370Z,83.14
2017-05-09T00:45:07.866Z,83.04
2017-05-09T00:46:18.960Z,83.37
2017-05-09T00:47:07.502Z,83.45
2017-05-09T00:48:07.966Z,83.24
2017-05-09T00:49:07.595Z,83.72
2017-05-09T00:50:08.214Z,83.97
2017-05-09T00:51:07.783Z,83.83
2017-05-09T00:52:08.337Z,82.99
2017-05-09T00:53:07.804Z,81.91
2017-05-09T00:54:08.423Z,82.15
2017-05-09T00:55:08.919Z,82.39
2017-05-09T00:56:08.456Z,82.63
2017-05-09T00:57:08.063Z,83.77
2017-05-09T00:58:07.529Z,83.93
2017-05-09T00:59:08.086Z,84.24
2017-05-09T01:00:07.534Z,83.93
2017-05-09T01:01:08.172Z,84.06
2017-05-09T01:02:07.717Z,83.40
2017-05-09T01:03:08.375Z,83.97
2017-05-09T01:04:07.938Z,84.41
2017-05-09T01:05:07.536Z,83.51
2017-05-09T01:06:08.125Z,84.08
2017-05-09T01:07:07.645Z,83.62
2017-05-09T01:08:08.280Z,83.44
2017-05-09T01:09:07.909Z,85.17
2017-05-09T01:10:08.535Z,84.41
2017-05-09T01:11:08.000Z,84.62
2017-05-09T01:12:08.440Z,84.79
2017-05-09T01:13:08.036Z,84.03
2017-05-09T01:14:07.746Z,83.28
2017-05-09T01:15:08.288Z,83.57
2017-05-09T01:16:07.837Z,83.98
2017-05-09T01:17:08.448Z,84.49
2017-05-09T01:18:08.211Z,84.18
2017-05-09T01:19:07.737Z,84.34
2017-05-09T01:20:08.219Z,84.31
2017-05-09T01:21:07.788Z,83.72
2017-05-09T01:22:08.412Z,82.93
2017-05-09T01:23:08.143Z,83.03
2017-05-09T01:24:07.611Z,83.10
2017-05-09T01:25:08.141Z,82.98
2017-05-09T01:26:07.648Z,83.57
2017-05-09T01:27:08.173Z,83.85
2017-05-09T01:28:07.866Z,83.63
2017-05-09T01:29:08.525Z,82.02
2017-05-09T01:30:08.088Z,82.26
2017-05-09T01:31:07.614Z,82.42
2017-05-09T01:32:08.122Z,83.23
2017-05-09T01:33:07.701Z,83.34
2017-05-09T01:34:08.241Z,84.23
2017-05-09T01:35:07.749Z,82.84
2017-05-09T01:36:08.368Z,83.08
2017-05-09T01:37:08.238Z,84.00
2017-05-09T01:38:07.755Z,83.67
2017-05-09T01:39:08.349Z,83.81
2017-05-09T01:40:07.591Z,83.66
2017-05-09T01:41:08.096Z,84.02
2017-05-09T01:42:07.585Z,83.30
2017-05-09T01:43:08.498Z,83.32
2017-05-09T01:44:08.147Z,83.75
2017-05-09T01:45:07.733Z,83.94
2017-05-09T01:46:08.343Z,83.86
2017-05-09T01:47:07.890Z,82.96
2017-05-09T01:48:08.480Z,82.96
2017-05-09T01:49:08.045Z,82.79
2017-05-09T01:50:07.531Z,83.30
2017-05-09T01:51:08.111Z,83.26
2017-05-09T01:52:07.612Z,83.85
2017-05-09T01:53:08.194Z,83.79
2017-05-09T01:54:07.766Z,83.84
2017-05-09T01:55:08.287Z,83.80
2017-05-09T01:56:08.055Z,83.88
2017-05-09T01:57:07.535Z,83.26
2017-05-09T01:58:08.015Z,82.96
2017-05-09T01:59:07.845Z,82.74
2017-05-09T02:00:08.411Z,82.70
2017-05-09T02:01:08.105Z,82.96
2017-05-09T02:02:07.701Z,82.55
2017-05-09T02:03:08.266Z,82.64
2017-05-09T02:04:07.907Z,82.86
2017-05-09T02:05:08.500Z,82.54
2017-05-09T02:06:08.055Z,82.70
2017-05-09T02:07:07.618Z,83.24
2017-05-09T02:08:08.111Z,82.71
2017-05-09T02:09:07.637Z,83.41
2017-05-09T02:10:08.279Z,83.11
2017-05-09T02:11:08.016Z,83.15
2017-05-09T02:12:07.657Z,82.26
2017-05-09T02:13:08.254Z,82.78
2017-05-09T02:14:07.843Z,83.64
2017-05-09T02:15:08.429Z,83.68
2017-05-09T02:16:08.026Z,84.04
2017-05-09T02:17:07.688Z,83.51
2017-05-09T02:19:02.069Z,83.88
2017-05-09T02:19:07.817Z,83.88
2017-05-09T02:20:08.406Z,83.03
2017-05-09T02:21:08.207Z,82.58
2017-05-09T02:22:07.733Z,81.99
2017-05-09T02:23:08.283Z,82.23
2017-05-09T02:24:07.823Z,82.86
2017-05-09T02:25:08.462Z,83.13
2017-05-09T02:26:07.887Z,82.88
2017-05-09T02:27:08.388Z,81.55
2017-05-09T02:28:07.877Z,81.92
2017-05-09T02:29:08.526Z,82.86
2017-05-09T02:30:08.018Z,83.57
2017-05-09T02:31:07.770Z,84.84
2017-05-09T02:32:08.267Z,83.99
2017-05-09T02:33:26.412Z,82.48
2017-05-09T02:34:07.947Z,83.51
2017-05-09T02:35:07.474Z,84.24
2017-05-09T02:36:33.536Z,83.77
2017-05-09T02:37:08.140Z,83.49
2017-05-09T02:38:07.796Z,83.82
2017-05-09T02:39:08.357Z,83.47
2017-05-09T02:40:07.989Z,84.15
2017-05-09T02:41:07.524Z,83.62
2017-05-09T02:42:08.048Z,83.29
2017-05-09T02:43:07.578Z,83.84
2017-05-09T02:44:08.078Z,83.84
2017-05-09T02:45:07.653Z,83.74
2017-05-09T02:46:08.272Z,83.22
2017-05-09T02:47:07.802Z,83.50
2017-05-09T02:48:08.289Z,83.73
2017-05-09T02:49:07.791Z,84.06
2017-05-09T02:50:08.335Z,84.18
2017-05-09T02:51:07.775Z,84.11
2017-05-09T02:52:08.294Z,84.10
2017-05-09T02:53:07.799Z,84.17
2017-05-09T02:54:08.399Z,83.55
2017-05-09T02:55:07.895Z,83.35
2017-05-09T02:56:08.378Z,83.02
2017-05-09T02:57:08.187Z,83.51
2017-05-09T02:58:07.710Z,83.22
2017-05-09T02:59:08.293Z,83.30
2017-05-09T03:00:07.792Z,83.72
2017-05-09T03:01:08.455Z,82.95
2017-05-09T03:02:07.942Z,82.94
2017-05-09T03:03:07.413Z,82.88
2017-05-09T03:04:07.915Z,82.83
2017-05-09T03:05:08.466Z,83.35
2017-05-09T03:06:07.974Z,83.64
2017-05-09T03:07:07.598Z,84.15
2017-05-09T03:08:33.784Z,84.15
2017-05-09T03:09:08.337Z,83.84
2017-05-09T03:10:07.823Z,84.15
2017-05-09T03:11:08.333Z,84.20
2017-05-09T03:12:07.781Z,83.84
2017-05-09T03:13:08.337Z,82.73
2017-05-09T03:14:07.915Z,84.06
2017-05-09T03:15:08.523Z,83.88
2017-05-09T03:16:08.158Z,83.46
2017-05-09T03:17:08.101Z,82.89
2017-05-09T03:18:07.585Z,83.08
2017-05-09T03:19:08.383Z,83.30
2017-05-09T03:20:07.922Z,83.30
2017-05-09T03:21:08.513Z,82.91
2017-05-09T03:22:08.024Z,84.12
2017-05-09T03:23:07.573Z,84.75
2017-05-09T03:24:08.088Z,84.67
2017-05-09T03:25:07.600Z,83.52
2017-05-09T03:26:08.220Z,84.18
2017-05-09T03:27:07.764Z,84.63
2017-05-09T03:28:08.266Z,83.96
2017-05-09T03:29:07.853Z,84.35
2017-05-09T03:30:08.378Z,83.18
2017-05-09T03:31:08.024Z,83.67
2017-05-09T03:32:38.056Z,83.54
2017-05-09T03:33:07.560Z,83.72
2017-05-09T03:34:07.775Z,84.11
2017-05-09T03:35:08.295Z,83.61
2017-05-09T03:36:07.983Z,83.16
2017-05-09T03:37:07.604Z,83.59
2017-05-09T03:38:08.132Z,84.32
2017-05-09T03:39:07.900Z,83.91
2017-05-09T03:40:08.522Z,84.22
2017-05-09T03:41:08.015Z,84.52
2017-05-09T03:42:07.733Z,84.20
2017-05-09T03:43:08.217Z,84.46
2017-05-09T03:44:07.761Z,85.05
2017-05-09T03:45:08.347Z,84.20
2017-05-09T03:46:07.813Z,83.93
2017-05-09T03:47:08.334Z,84.38
2017-05-09T03:48:07.802Z,83.95
2017-05-09T03:49:08.372Z,84.27
2017-05-09T03:50:07.873Z,84.15
2017-05-09T03:51:08.411Z,84.02
2017-05-09T03:52:07.996Z,83.48
2017-05-09T03:53:07.486Z,83.82
2017-05-09T03:54:07.988Z,84.27
2017-05-09T03:55:07.474Z,84.51
2017-05-09T03:56:08.165Z,84.42
2017-05-09T03:57:08.069Z,83.89
2017-05-09T03:58:07.633Z,83.67
2017-05-09T03:59:08.106Z,83.62
2017-05-09T04:00:07.617Z,83.90
2017-05-09T04:01:08.051Z,83.65
2017-05-09T04:02:07.560Z,83.63
2017-05-09T04:03:08.151Z,82.96
2017-05-09T04:04:07.645Z,82.41
2017-05-09T04:05:08.180Z,82.33
2017-05-09T04:06:07.873Z,82.20
2017-05-09T04:07:08.409Z,82.53
2017-05-09T04:08:08.013Z,82.20
2017-05-09T04:09:07.483Z,82.71
2017-05-09T04:10:07.953Z,83.28
2017-05-09T04:11:07.430Z,83.54
2017-05-09T04:12:07.949Z,84.06
2017-05-09T04:13:07.462Z,83.92
2017-05-09T04:14:07.938Z,83.76
2017-05-09T04:15:07.569Z,84.21
2017-05-09T04:16:33.747Z,84.01
2017-05-09T04:17:08.408Z,83.45
2017-05-09T04:18:07.990Z,83.01
2017-05-09T04:19:07.459Z,83.02
2017-05-09T04:20:07.948Z,83.17
2017-05-09T04:21:08.044Z,83.63
2017-05-09T04:22:33.120Z,83.54
2017-05-09T04:23:07.632Z,82.46
2017-05-09T04:24:08.188Z,82.75
2017-05-09T04:25:10.724Z,83.12
2017-05-09T04:26:07.432Z,83.27
2017-05-09T04:27:07.901Z,83.26
2017-05-09T04:28:08.537Z,83.54
2017-05-09T04:29:08.077Z,83.48
2017-05-09T04:30:07.848Z,82.62
2017-05-09T04:31:08.345Z,82.05
2017-05-09T04:32:08.034Z,81.36
2017-05-09T04:33:07.583Z,81.58
2017-05-09T04:34:08.126Z,81.85
2017-05-09T04:35:07.664Z,82.26
2017-05-09T04:36:08.321Z,82.05
2017-05-09T04:37:08.194Z,82.06
2017-05-09T04:38:07.716Z,81.66
2017-05-09T04:39:08.311Z,81.71
2017-05-09T04:40:07.791Z,81.81
2017-05-09T04:41:08.369Z,82.00
2017-05-09T04:42:08.010Z,81.84
2017-05-09T04:43:07.613Z,81.30
2017-05-09T04:44:08.108Z,81.06
2017-05-09T04:45:07.647Z,81.06
2017-05-09T04:46:08.274Z,81.66
2017-05-09T04:47:07.896Z,82.10
2017-05-09T04:48:08.464Z,81.39
2017-05-09T04:49:08.014Z,80.65
2017-05-09T04:50:07.514Z,79.76
2017-05-09T04:51:08.072Z,79.64
2017-05-09T04:52:07.600Z,79.14
2017-05-09T04:53:08.067Z,78.84
2017-05-09T04:54:07.803Z,79.58
2017-05-09T04:55:08.570Z,78.25
2017-05-09T04:56:08.474Z,78.49
2017-05-09T04:57:08.060Z,78.58
2017-05-09T04:58:07.563Z,78.94
2017-05-09T04:59:08.169Z,79.03
2017-05-09T05:00:07.683Z,79.19
2017-05-09T05:01:08.551Z,79.64
2017-05-09T05:02:08.101Z,79.19
2017-05-09T05:03:07.722Z,80.04
2017-05-09T05:04:08.310Z,79.15
2017-05-09T05:05:07.876Z,78.56
2017-05-09T05:06:08.587Z,79.64
2017-05-09T05:07:08.288Z,79.32
2017-05-09T05:08:07.865Z,77.45
2017-05-09T05:09:08.684Z,78.18
2017-05-09T05:10:08.296Z,77.70
2017-05-09T05:11:07.786Z,77.98
2017-05-09T05:12:08.372Z,78.08
2017-05-09T05:13:07.911Z,76.62
2017-05-09T05:14:08.463Z,77.87
2017-05-09T05:15:14.287Z,77.38
2017-05-09T05:16:07.816Z,78.21
2017-05-09T05:17:08.547Z,78.47
2017-05-09T05:18:08.182Z,77.06
2017-05-09T05:19:08.162Z,77.11
2017-05-09T05:20:07.703Z,76.75
2017-05-09T05:21:08.171Z,77.84
2017-05-09T05:22:07.716Z,78.19
2017-05-09T05:23:08.291Z,78.50
2017-05-09T05:24:07.792Z,78.48
2017-05-09T05:25:08.309Z,78.67
2017-05-09T05:26:07.820Z,78.50
2017-05-09T05:27:08.517Z,79.08
2017-05-09T05:28:08.108Z,79.11
2017-05-09T05:29:07.567Z,78.38
2017-05-09T05:30:07.678Z,78.44
2017-05-09T05:31:08.325Z,78.85
2017-05-09T05:32:07.773Z,78.57
2017-05-09T05:33:08.640Z,77.83
2017-05-09T05:34:08.208Z,78.48
2017-05-09T05:35:07.680Z,79.23
2017-05-09T05:36:08.282Z,78.96
2017-05-09T05:37:07.775Z,78.64
2017-05-09T05:38:08.383Z,78.20
2017-05-09T05:39:07.954Z,77.01
2017-05-09T05:41:01.930Z,76.67
2017-05-09T05:41:08.132Z,77.80
2017-05-09T05:42:07.701Z,78.40
2017-05-09T05:43:08.196Z,77.11
2017-05-09T05:44:07.949Z,77.12
2017-05-09T05:45:07.409Z,77.22
2017-05-09T05:46:07.980Z,77.31
2017-05-09T05:47:07.471Z,78.10
2017-05-09T05:48:08.019Z,76.62
2017-05-09T05:49:07.634Z,76.86
2017-05-09T05:50:08.192Z,78.48
2017-05-09T05:51:07.853Z,77.53
2017-05-09T05:52:08.338Z,76.86
2017-05-09T05:53:07.884Z,77.36
2017-05-09T05:54:08.482Z,76.48
2017-05-09T05:55:08.116Z,78.00
2017-05-09T05:56:07.761Z,76.67
2017-05-09T05:57:08.248Z,77.29
2017-05-09T05:58:07.884Z,78.06
2017-05-09T05:59:08.435Z,78.16
2017-05-09T06:00:07.962Z,77.79
2017-05-09T06:01:07.468Z,77.76
2017-05-09T06:02:07.995Z,76.35
2017-05-09T06:03:07.610Z,76.82
2017-05-09T06:04:08.094Z,77.57
2017-05-09T06:05:07.593Z,77.04
2017-05-09T06:06:08.159Z,76.78
2017-05-09T06:07:07.607Z,77.55
2017-05-09T06:08:08.124Z,76.70
2017-05-09T06:09:07.744Z,77.00
2017-05-09T06:10:08.204Z,76.21
2017-05-09T06:11:07.730Z,76.23
2017-05-09T06:12:08.292Z,76.54
2017-05-09T06:13:07.883Z,77.37
2017-05-09T06:14:08.422Z,77.24
2017-05-09T06:15:08.005Z,75.64
2017-05-09T06:16:07.539Z,75.68
2017-05-09T06:17:08.239Z,76.59
2017-05-09T06:18:07.866Z,76.77
2017-05-09T06:19:08.395Z,77.33
2017-05-09T06:20:07.877Z,77.93
2017-05-09T06:21:09.307Z,78.04
2017-05-09T06:22:07.854Z,78.23
2017-05-09T06:23:08.485Z,78.46
2017-05-09T06:24:07.934Z,79.51
2017-05-09T06:25:07.564Z,79.61
2017-05-09T06:26:08.122Z,78.47
2017-05-09T06:27:08.566Z,78.14
2017-05-09T06:28:08.495Z,78.03
2017-05-09T06:29:08.063Z,78.41
2017-05-09T06:30:07.580Z,78.14
2017-05-09T06:31:08.193Z,79.00
2017-05-09T06:32:07.720Z,79.09
2017-05-09T06:33:08.508Z,78.02
2017-05-09T06:34:08.076Z,78.27
2017-05-09T06:35:07.938Z,78.48
2017-05-09T06:36:07.601Z,78.54
2017-05-09T06:37:08.084Z,78.23
2017-05-09T06:38:07.599Z,78.84
2017-05-09T06:39:08.171Z,79.29
2017-05-09T06:40:07.786Z,78.64
2017-05-09T06:41:08.370Z,78.33
2017-05-09T06:42:07.905Z,79.05
2017-05-09T06:43:08.526Z,79.67
2017-05-09T06:44:08.092Z,79.79
2017-05-09T06:45:07.593Z,79.86
2017-05-09T06:46:08.116Z,80.94
2017-05-09T06:47:07.688Z,80.66
2017-05-09T06:48:08.305Z,80.13
2017-05-09T06:49:07.826Z,79.58
2017-05-09T06:50:08.384Z,79.43
2017-05-09T06:51:07.945Z,78.49
2017-05-09T06:52:07.485Z,79.61
2017-05-09T06:53:08.908Z,79.73
2017-05-09T06:54:08.492Z,79.78
2017-05-09T06:55:07.930Z,78.14
2017-05-09T06:56:08.530Z,79.37
2017-05-09T06:57:08.156Z,79.67
2017-05-09T06:58:07.706Z,80.40
2017-05-09T06:59:08.378Z,79.52
2017-05-09T07:00:07.927Z,79.02
2017-05-09T07:01:08.589Z,78.88
2017-05-09T07:02:09.147Z,78.69
2017-05-09T07:03:07.772Z,79.45
2017-05-09T07:04:08.348Z,80.39
2017-05-09T07:05:07.836Z,80.84
2017-05-09T07:06:08.353Z,80.06
2017-05-09T07:07:07.960Z,80.39
2017-05-09T07:08:07.406Z,79.80
2017-05-09T07:09:07.985Z,80.31
2017-05-09T07:10:07.497Z,82.28
2017-05-09T07:11:08.005Z,82.42
2017-05-09T07:12:07.588Z,83.36
2017-05-09T07:13:08.111Z,83.11
2017-05-09T07:14:07.792Z,84.06
2017-05-09T07:15:08.285Z,82.15
2017-05-09T07:16:07.803Z,81.62
2017-05-09T07:17:08.521Z,82.35
2017-05-09T07:18:08.136Z,82.67
2017-05-09T07:19:07.761Z,82.37
2017-05-09T07:20:08.401Z,82.43
2017-05-09T07:21:07.985Z,82.61
2017-05-09T07:22:07.579Z,83.96
2017-05-09T07:23:08.179Z,82.95
2017-05-09T07:24:07.784Z,82.41
2017-05-09T07:25:08.397Z,81.26
2017-05-09T07:26:08.017Z,83.22
2017-05-09T07:27:07.480Z,83.42
2017-05-09T07:28:07.763Z,82.50
2017-05-09T07:29:08.323Z,82.59
2017-05-09T07:30:08.019Z,83.08
2017-05-09T07:31:07.515Z,82.26
2017-05-09T07:32:08.069Z,82.67
2017-05-09T07:33:07.568Z,82.70
2017-05-09T07:34:08.254Z,83.50
2017-05-09T07:35:07.854Z,83.67
2017-05-09T07:36:08.397Z,83.07
2017-05-09T07:37:07.964Z,82.55
2017-05-09T07:38:07.599Z,80.62
2017-05-09T07:39:08.139Z,82.04
2017-05-09T07:40:07.738Z,82.21
2017-05-09T07:41:38.870Z,82.23
2017-05-09T07:43:07.807Z,83.15
2017-05-09T07:43:11.585Z,82.47
2017-05-09T07:44:08.219Z,82.85
2017-05-09T07:45:07.754Z,82.65
2017-05-09T07:46:08.333Z,81.93
2017-05-09T07:47:07.890Z,82.29
2017-05-09T07:48:08.460Z,82.72
2017-05-09T07:49:08.161Z,82.54
2017-05-09T07:50:07.737Z,83.21
2017-05-09T07:51:08.299Z,82.76
2017-05-09T07:52:07.863Z,83.02
2017-05-09T07:53:08.658Z,83.13
2017-05-09T07:54:08.272Z,82.67
2017-05-09T07:55:07.905Z,82.95
2017-05-09T07:56:08.508Z,81.93
2017-05-09T07:57:08.078Z,81.89
2017-05-09T07:58:07.599Z,82.61
2017-05-09T07:59:08.135Z,83.00
2017-05-09T08:00:07.694Z,83.35
2017-05-09T08:01:08.261Z,83.37
2017-05-09T08:02:07.812Z,83.39
2017-05-09T08:03:08.369Z,81.25
2017-05-09T08:04:08.055Z,81.25
2017-05-09T08:05:07.621Z,81.44
2017-05-09T08:06:08.179Z,80.48
2017-05-09T08:07:07.736Z,81.09
2017-05-09T08:08:08.316Z,79.65
2017-05-09T08:09:07.944Z,79.16
2017-05-09T08:10:07.489Z,79.13
2017-05-09T08:11:08.097Z,77.29
2017-05-09T08:12:07.604Z,76.39
2017-05-09T08:13:08.195Z,77.86
2017-05-09T08:14:07.652Z,76.79
2017-05-09T08:15:08.212Z,76.11
2017-05-09T08:16:07.705Z,77.65
2017-05-09T08:17:08.655Z,78.74
2017-05-09T08:18:08.226Z,78.13
2017-05-09T08:19:07.850Z,77.65
2017-05-09T08:20:08.524Z,77.73
2017-05-09T08:21:08.153Z,77.14
2017-05-09T08:22:07.656Z,77.00
2017-05-09T08:23:08.123Z,77.88
2017-05-09T08:24:08.814Z,78.12
2017-05-09T08:25:08.458Z,78.02
2017-05-09T08:26:07.898Z,78.12
2017-05-09T08:27:08.211Z,79.82
2017-05-09T08:28:08.192Z,78.51
2017-05-09T08:29:07.768Z,79.74
2017-05-09T08:30:08.262Z,79.39
2017-05-09T08:31:07.794Z,77.41
2017-05-09T08:32:08.364Z,76.71
2017-05-09T08:33:07.845Z,76.53
2017-05-09T08:34:08.461Z,76.33
2017-05-09T08:35:08.191Z,77.47
2017-05-09T08:36:07.695Z,78.77
2017-05-09T08:37:08.234Z,77.69
2017-05-09T08:38:07.702Z,76.19
2017-05-09T08:39:08.304Z,77.06
2017-05-09T08:40:07.883Z,76.32
2017-05-09T08:41:08.356Z,75.83
2017-05-09T08:42:07.809Z,75.13
2017-05-09T08:43:08.387Z,76.93
2017-05-09T08:44:07.868Z,76.73
2017-05-09T08:45:08.540Z,76.40
2017-05-09T08:46:08.061Z,75.86
2017-05-09T08:47:07.914Z,76.10
2017-05-09T08:48:08.497Z,74.57
2017-05-09T08:49:08.069Z,73.27
2017-05-09T08:50:08.028Z,73.46
2017-05-09T08:51:07.633Z,73.49
2017-05-09T08:52:08.711Z,74.61
2017-05-09T08:53:08.162Z,74.66
2017-05-09T08:54:07.709Z,75.59
2017-05-09T08:55:08.186Z,74.44
2017-05-09T08:56:07.703Z,74.28
2017-05-09T08:57:08.210Z,74.72
2017-05-09T08:58:07.695Z,74.49
2017-05-09T08:59:08.192Z,73.54
2017-05-09T09:00:07.698Z,74.44
2017-05-09T09:01:08.342Z,73.08
2017-05-09T09:02:07.854Z,75.10
2017-05-09T09:03:08.409Z,76.37
2017-05-09T09:04:08.053Z,77.41
2017-05-09T09:05:07.601Z,75.03
2017-05-09T09:06:08.213Z,75.06
2017-05-09T09:07:07.814Z,74.28
2017-05-09T09:08:08.530Z,75.58
2017-05-09T09:09:08.098Z,74.80
2017-05-09T09:10:07.646Z,74.74
2017-05-09T09:11:27.902Z,73.45
2017-05-09T09:12:08.486Z,73.90
2017-05-09T09:13:07.977Z,75.58
2017-05-09T09:14:07.443Z,75.07
2017-05-09T09:15:08.024Z,77.02
2017-05-09T09:16:07.573Z,80.97
2017-05-09T09:17:08.213Z,76.81
2017-05-09T09:18:07.676Z,73.73
2017-05-09T09:19:08.272Z,74.20
2017-05-09T09:20:07.774Z,75.89
2017-05-09T09:21:08.412Z,75.03
2017-05-09T09:22:07.888Z,76.46
2017-05-09T09:23:08.459Z,75.23
2017-05-09T09:24:08.067Z,77.70
2017-05-09T09:25:07.490Z,74.63
2017-05-09T09:26:08.245Z,74.50
2017-05-09T09:27:07.748Z,74.71
2017-05-09T09:28:08.271Z,75.66
2017-05-09T09:29:07.734Z,78.48
2017-05-09T09:30:08.295Z,75.17
2017-05-09T09:31:07.878Z,74.61
2017-05-09T09:32:08.461Z,76.16
2017-05-09T09:33:07.956Z,76.80
2017-05-09T09:34:07.774Z,76.41
2017-05-09T09:35:08.376Z,74.23
2017-05-09T09:36:07.870Z,72.74
2017-05-09T09:37:08.425Z,72.92
2017-05-09T09:38:07.979Z,71.19
2017-05-09T09:39:07.446Z,72.99
2017-05-09T09:40:07.947Z,73.14
2017-05-09T09:41:07.650Z,73.36
2017-05-09T09:42:08.266Z,71.37
2017-05-09T09:43:07.720Z,70.88
2017-05-09T09:44:08.235Z,71.73
2017-05-09T09:45:07.873Z,71.94
2017-05-09T09:46:08.490Z,69.78
2017-05-09T09:47:08.110Z,69.77
2017-05-09T09:48:07.631Z,69.77
2017-05-09T09:49:08.246Z,64.28
2017-05-09T09:50:07.740Z,65.30
2017-05-09T09:51:08.343Z,66.19
2017-05-09T09:52:08.003Z,66.51
2017-05-09T09:53:07.640Z,64.93
2017-05-09T09:54:08.241Z,64.95
2017-05-09T09:55:07.799Z,66.63
2017-05-09T09:56:08.377Z,64.91
2017-05-09T09:57:07.984Z,64.58
2017-05-09T09:58:07.449Z,65.88
2017-05-09T09:59:08.029Z,64.47
2017-05-09T10:00:07.521Z,64.78
2017-05-09T10:01:08.014Z,65.91
2017-05-09T10:02:07.644Z,66.10
2017-05-09T10:03:08.177Z,66.52
2017-05-09T10:04:07.898Z,65.06
2017-05-09T10:05:08.481Z,66.53
2017-05-09T10:06:08.066Z,65.29
2017-05-09T10:07:07.617Z,66.37
2017-05-09T10:08:08.201Z,63.88
2017-05-09T10:09:07.909Z,63.54
2017-05-09T10:10:08.463Z,64.19
2017-05-09T10:11:07.975Z,64.76
2017-05-09T10:12:07.506Z,65.19
2017-05-09T10:13:08.067Z,65.83
2017-05-09T10:14:07.569Z,67.47
2017-05-09T10:15:08.177Z,66.83
2017-05-09T10:16:07.714Z,69.12
2017-05-09T10:17:08.422Z,69.33
2017-05-09T10:18:08.035Z,69.24
2017-05-09T10:19:07.558Z,68.68
2017-05-09T10:20:08.179Z,66.44
2017-05-09T10:21:07.916Z,67.06
2017-05-09T10:22:08.603Z,69.08
2017-05-09T10:23:08.067Z,65.65
2017-05-09T10:24:07.596Z,66.09
2017-05-09T10:25:08.204Z,66.29
2017-05-09T10:26:07.757Z,65.80
2017-05-09T10:27:08.456Z,68.48
2017-05-09T10:28:07.930Z,67.88
2017-05-09T10:29:07.507Z,69.53
2017-05-09T10:30:08.108Z,70.77
2017-05-09T10:31:07.635Z,70.56
2017-05-09T10:32:08.479Z,67.26
2017-05-09T10:33:08.012Z,67.66
2017-05-09T10:34:07.721Z,65.07
2017-05-09T10:35:08.211Z,63.78
2017-05-09T10:36:07.763Z,63.02
2017-05-09T10:37:08.316Z,62.99
2017-05-09T10:38:07.840Z,64.94
2017-05-09T10:39:08.279Z,64.87
2017-05-09T10:40:07.898Z,63.26
2017-05-09T10:41:08.520Z,66.34
2017-05-09T10:42:08.139Z,64.75
2017-05-09T10:43:07.699Z,63.60
2017-05-09T10:44:08.303Z,62.36
2017-05-09T10:45:08.036Z,62.84
2017-05-09T10:46:07.582Z,62.41
2017-05-09T10:47:08.173Z,65.33
2017-05-09T10:48:07.720Z,64.93
2017-05-09T10:49:08.297Z,68.46
2017-05-09T10:50:07.871Z,65.65
2017-05-09T10:51:08.455Z,66.93
2017-05-09T10:52:07.922Z,66.80
2017-05-09T10:53:07.519Z,67.34
2017-05-09T10:54:08.140Z,61.09
2017-05-09T10:55:07.800Z,60.18
2017-05-09T10:56:08.359Z,61.32
2017-05-09T10:57:08.257Z,61.17
2017-05-09T10:58:07.826Z,60.72
2017-05-09T10:59:08.366Z,61.57
2017-05-09T11:00:07.972Z,61.50
2017-05-09T11:01:07.583Z,61.06
2017-05-09T11:02:08.020Z,59.00
2017-05-09T11:03:07.615Z,58.45
2017-05-09T11:04:26.947Z,58.57
2017-05-09T11:05:07.412Z,60.96
2017-05-09T11:06:07.960Z,61.61
2017-05-09T11:07:07.439Z,62.68
2017-05-09T11:08:08.089Z,62.28
2017-05-09T11:09:07.731Z,59.46
2017-05-09T11:10:08.532Z,59.07
2017-05-09T11:11:08.161Z,57.89
2017-05-09T11:12:07.752Z,57.71
2017-05-09T11:13:08.387Z,57.81
2017-05-09T11:14:07.807Z,59.54
2017-05-09T11:15:08.388Z,59.27
2017-05-09T11:16:07.957Z,60.63
2017-05-09T11:17:07.700Z,60.57
2017-05-09T11:18:08.368Z,56.79
2017-05-09T11:19:07.971Z,55.66
2017-05-09T11:20:08.393Z,57.08
2017-05-09T11:21:08.692Z,56.48
2017-05-09T11:22:08.206Z,58.05
2017-05-09T11:23:07.758Z,57.87
2017-05-09T11:24:08.311Z,59.31
2017-05-09T11:25:07.837Z,59.51
2017-05-09T11:26:08.333Z,59.04
2017-05-09T11:27:07.785Z,60.51
2017-05-09T11:28:08.481Z,59.12
2017-05-09T11:29:26.647Z,56.54
2017-05-09T11:30:08.276Z,58.72
2017-05-09T11:31:07.775Z,60.03
2017-05-09T11:32:08.330Z,57.99
2017-05-09T11:33:07.846Z,58.08
2017-05-09T11:34:08.496Z,55.95
2017-05-09T11:35:08.034Z,55.50
2017-05-09T11:36:07.532Z,56.41
2017-05-09T11:37:08.059Z,53.86
2017-05-09T11:38:07.582Z,54.56
2017-05-09T11:39:08.090Z,58.11
2017-05-09T11:40:07.630Z,59.47
2017-05-09T11:41:08.218Z,55.92
2017-05-09T11:42:07.838Z,55.13
2017-05-09T11:43:08.459Z,57.44
2017-05-09T11:44:08.065Z,57.52
2017-05-09T11:45:07.663Z,57.72
2017-05-09T11:46:08.162Z,57.27
2017-05-09T11:47:07.741Z,60.15
2017-05-09T11:48:08.353Z,60.37
2017-05-09T11:49:07.868Z,61.42
2017-05-09T11:50:08.325Z,59.29
2017-05-09T11:51:07.836Z,58.49
2017-05-09T11:52:08.314Z,58.80
2017-05-09T11:53:07.776Z,58.66
2017-05-09T11:54:08.322Z,58.38
2017-05-09T11:55:07.930Z,59.39
2017-05-09T11:56:08.535Z,58.73
2017-05-09T11:57:08.132Z,58.84
2017-05-09T11:58:07.746Z,58.36
2017-05-09T11:59:08.370Z,56.99
2017-05-09T12:00:07.874Z,57.30
2017-05-09T12:01:08.381Z,57.28
2017-05-09T12:02:08.013Z,58.72
2017-05-09T12:03:07.704Z,58.60
2017-05-09T12:04:08.396Z,57.52
2017-05-09T12:05:07.968Z,57.06
2017-05-09T12:06:07.655Z,57.30
2017-05-09T12:07:08.258Z,57.53
2017-05-09T12:08:07.844Z,57.47
2017-05-09T12:09:08.416Z,57.71
2017-05-09T12:10:08.041Z,57.87
2017-05-09T12:11:07.553Z,57.93
2017-05-09T12:12:08.156Z,58.23
2017-05-09T12:13:07.622Z,59.41
2017-05-09T12:14:08.351Z,57.73
2017-05-09T12:15:07.982Z,59.67
2017-05-09T12:16:07.696Z,57.94
2017-05-09T12:17:08.325Z,57.43
2017-05-09T12:18:07.917Z,57.16
2017-05-09T12:19:08.573Z,59.23
2017-05-09T12:20:08.260Z,57.22
2017-05-09T12:21:07.809Z,57.30
2017-05-09T12:22:08.384Z,56.98
2017-05-09T12:23:08.337Z,58.07
2017-05-09T12:24:07.818Z,56.61
2017-05-09T12:25:08.336Z,55.38
2017-05-09T12:26:07.900Z,57.37
2017-05-09T12:27:08.588Z,55.80
2017-05-09T12:28:08.124Z,53.81
2017-05-09T12:29:07.690Z,54.33
2017-05-09T12:30:08.363Z,53.23
2017-05-09T12:31:07.903Z,52.84
2017-05-09T12:32:08.449Z,52.76
2017-05-09T12:33:08.012Z,52.82
2017-05-09T12:34:07.641Z,52.14
2017-05-09T12:35:08.301Z,52.65
2017-05-09T12:36:07.871Z,53.59
2017-05-09T12:37:08.396Z,54.68
2017-05-09T12:38:08.103Z,52.55
2017-05-09T12:39:07.787Z,52.80
2017-05-09T12:40:08.350Z,54.40
2017-05-09T12:41:07.803Z,52.40
2017-05-09T12:42:08.296Z,51.22
2017-05-09T12:43:07.787Z,51.47
2017-05-09T12:44:26.890Z,51.81
2017-05-09T12:45:22.038Z,50.97
2017-05-09T12:46:07.694Z,51.78
2017-05-09T12:47:08.227Z,52.84
2017-05-09T12:48:07.721Z,50.52
2017-05-09T12:49:08.214Z,51.19
2017-05-09T12:50:07.833Z,52.43
2017-05-09T12:51:08.414Z,51.44
2017-05-09T12:52:07.891Z,51.51